SBFISBPA

Guest
Details From SBFI - Foz Do Iguacu
To SBPA - Salgado Filho
Flight Number -
Tags generated
Created
Modified
Stats Distance 317 nm / 588 km
Max Altitude 35,000 ft / 10,668 m
Waypoints 5
Social Downloads 1
Likes 0
Share VATSIM

Download

Looking for another format? Having issues loading an existing format? Contact us
Advertisement - Login to hide

Notes

Basic altitude profile: - Ascent Rate: 2500ft/min - Ascent Speed: 290kts - Cruise Altitude: 31000ft - Cruise Speed: 450kts - Descent Rate: 2500ft/min - Descent Speed: 280kts Options: - Use NATs: yes - Use PACOTS: yes - Use low airways: yes - Use high airways: yes

Route

SBFI ARGIL UR563 NOBEL SBPA

ID Type Via Altitude Latitude Longitude Leg Dist Tot Dist Heading (true) Name
O SBFI APT - 0 ft / 0 m -25.59579˚ -54.48744˚ - 0 nm - Foz Do Iguacu
ARGIL FIX - 31,200 ft / 9,510 m -26.85508˚ -53.57467˚ 90 nm 90 nm 147° / 147° -
BRICK FIX UR563 (AWY-HI) 35,000 ft / 10,668 m -27.69533˚ -52.94717˚ 60 nm 150 nm 147° / 146° -
NOBEL FIX UR563 (AWY-HI) 23,500 ft / 7,163 m -28.82417˚ -52.08483˚ 81 nm 232 nm 146° / 146° -
O SBPA APT - 0 ft / 0 m -29.99443˚ -51.17143˚ 84 nm 317 nm 146° / 146° Salgado Filho

Altitude Profile

Advertisement - Login to hide

Weather


0- 5 10 15 20 25 30 35+ Temperature / ° C

Clouds and Precipitation
Forecast for 2017-12-14 18:00 UTC. Updated 2 hours ago

Ground ~20,000 ft ~40,000 ft Winds

SBFI

Details ICAO SBFI (IGU)
Name Foz Do Iguacu
Region Brazil
Timezone America/Sao_Paulo (UTC-2.0)
Stats Elevation 787 ft / 240 m (AMSL)
Location -25.595790° -54.487443°
Runways 1
Magnetic Variation 16.285° W

METAR

SBFI 141500Z 01010KT 9999 FEW020 32/22 Q1014

Decode

TAF

TAF SBFI 140830Z 1412/1512 11005KT CAVOK TX35/1418Z TN25/1508Z BECMG 1412/1414 35008KT 9999 SCT040 BECMG 1421/1423 09005KT CAVOK BECMG 1510/1512 02007KT RMK PER

Decode

Departure Runways

ID Width Length Bearing (true) Bearing (mag) Surface Threshold Offset Overrun Length
14 148 ft / 45 m 7,232 ft / 2,204 m 130.83° 147.12° Asphalt 0 ft / 0 m 164 ft / 50 m
32 148 ft / 45 m 7,232 ft / 2,204 m 310.83° 327.12° Asphalt 0 ft / 0 m 197 ft / 60 m

SBPA

Details ICAO SBPA (POA)
Name Salgado Filho
Region Brazil
Timezone America/Sao_Paulo (UTC-2.0)
Stats Elevation 11 ft / 3 m (AMSL)
Location -29.994428° -51.171426°
Runways 1
Magnetic Variation 16.878° W

METAR

SBPA 141500Z 29010KT 9999 FEW045 32/21 Q1011

Decode

TAF

Not found

Destination Runways

ID Width Length Bearing (true) Bearing (mag) Surface Threshold Offset Overrun Length
11 138 ft / 42 m 7,487 ft / 2,282 m 91.60° 108.48° Asphalt 0 ft / 0 m 230 ft / 70 m
29 138 ft / 42 m 7,487 ft / 2,282 m 271.59° 288.47° Asphalt 0 ft / 0 m 197 ft / 60 m

Approach Navaids

Runway Type Ident Frequency Range Bearing (true) Bearing (mag) Slope Elevation
11 Localiser IPA 110.30 MHz 18 nm / 33 km 90.92° 107.80° - 11 ft / 3 m (AMSL)
11 Glidescope IPA 110.30 MHz 10 nm / 19 km 91.60° 108.48° 3.00° 11 ft / 3 m (AMSL)

Popular Alternatives